Time;durP1;ratioP1;P1;durP2;ratioP2;P2;SDS_P1;SDS_P2;PMS_P1;PMS_P2;Temp;Humidity;BMP_temperature;BMP_pressure;BME280_temperature;BME280_humidity;BME280_pressure;Samples;Min_cycle;Max_cycle;Signal;HPM_P1;HPM_P2
2023/07/06 00:01:46;;;;;;;5.30;2.90;;;;;;;13.76;91.09;100774.52;107027;1256;60284;-71
2023/07/06 00:04:14;;;;;;;5.00;2.80;;;;;;;13.74;90.80;100773.00;107139;1256;73478;-70
2023/07/06 00:06:41;;;;;;;5.10;2.60;;;;;;;13.72;90.59;100773.35;107552;1256;69186;-72
2023/07/06 00:09:09;;;;;;;4.80;2.60;;;;;;;13.69;90.70;100771.73;107711;1256;73219;-71
2023/07/06 00:11:38;;;;;;;5.10;2.60;;;;;;;13.66;91.01;100768.71;107618;1256;60787;-71
2023/07/06 00:14:07;;;;;;;4.80;2.80;;;;;;;13.62;91.22;100772.54;107416;1256;61295;-70
2023/07/06 00:16:34;;;;;;;5.00;2.90;;;;;;;13.58;91.32;100773.23;107498;1256;72894;-71
2023/07/06 00:19:01;;;;;;;5.30;2.70;;;;;;;13.55;91.22;100769.45;107670;1256;70974;-69
2023/07/06 00:21:31;;;;;;;4.00;2.80;;;;;;;13.52;91.57;100773.35;107203;1256;72159;-70
2023/07/06 00:23:58;;;;;;;4.80;2.80;;;;;;;13.49;91.57;100770.00;107382;1256;61275;-69
2023/07/06 00:26:25;;;;;;;4.10;2.60;;;;;;;13.49;91.71;100772.88;107308;1256;62815;-71
2023/07/06 00:28:53;;;;;;;4.10;2.70;;;;;;;13.48;91.86;100772.75;107234;1256;74742;-71
2023/07/06 00:31:31;;;;;;;6.00;3.10;;;;;;;13.49;91.48;100774.40;107444;1256;70204;-71
2023/07/06 00:34:05;;;;;;;3.80;2.50;;;;;;;13.51;91.69;100771.17;107110;1256;73168;-71
2023/07/06 00:36:35;;;;;;;5.90;2.70;;;;;;;13.54;91.55;100773.81;107260;1256;63313;-70
2023/07/06 00:39:02;;;;;;;5.20;2.70;;;;;;;13.56;91.50;100774.70;107381;1256;61756;-70
2023/07/06 00:41:31;;;;;;;4.20;2.40;;;;;;;13.57;91.86;100779.50;107274;1256;74159;-71
2023/07/06 00:43:58;;;;;;;4.10;2.50;;;;;;;13.58;91.71;100783.73;106914;1256;71156;-71
2023/07/06 00:46:37;;;;;;;4.50;2.40;;;;;;;13.60;92.00;100786.33;107368;1256;72436;-70
2023/07/06 00:49:12;;;;;;;5.80;2.70;;;;;;;13.61;91.99;100783.19;107272;1262;61312;-71
2023/07/06 00:51:40;;;;;;;5.30;2.50;;;;;;;13.63;91.77;100778.73;108046;1256;60335;-72
2023/07/06 00:54:16;;;;;;;4.90;2.80;;;;;;;13.67;91.63;100784.64;107575;1256;73458;-70
2023/07/06 00:56:45;;;;;;;4.80;2.60;;;;;;;13.70;91.71;100788.14;107861;1257;70012;-71
2023/07/06 00:59:17;;;;;;;4.30;2.60;;;;;;;13.74;91.53;100791.77;107376;1258;72157;-71
2023/07/06 01:01:46;;;;;;;3.50;2.60;;;;;;;13.77;91.62;100791.05;107167;1259;61250;-70
2023/07/06 01:04:17;;;;;;;3.30;2.30;;;;;;;13.80;91.61;100796.63;107245;1256;61231;-72
2023/07/06 01:06:50;;;;;;;5.10;2.50;;;;;;;13.83;91.50;100798.95;107760;1256;74862;-70
2023/07/06 01:09:17;;;;;;;5.10;2.50;;;;;;;13.86;91.45;100799.25;107420;1256;70133;-71
2023/07/06 01:11:44;;;;;;;4.00;2.60;;;;;;;13.88;91.80;100799.92;107145;1257;72920;-71
2023/07/06 01:14:12;;;;;;;4.30;2.60;;;;;;;13.90;91.75;100796.98;107379;1256;61556;-69
2023/07/06 01:17:03;;;;;;;3.60;2.60;;;;;;;13.92;91.82;100793.58;107046;1256;63327;-72
2023/07/06 01:19:48;;;;;;;4.50;2.50;;;;;;;13.96;91.90;100795.77;107328;1256;75875;-72
2023/07/06 01:22:33;;;;;;;4.80;2.40;;;;;;;13.97;91.45;100793.80;107220;1256;71287;-71
2023/07/06 01:25:26;;;;;;;4.10;2.70;;;;;;;13.99;91.69;100797.50;107295;1256;72701;-71
2023/07/06 01:28:27;;;;;;;4.50;2.60;;;;;;;14.02;91.46;100795.88;107585;1256;61260;-70
2023/07/06 01:31:22;;;;;;;4.60;2.80;;;;;;;14.04;91.26;100793.26;107593;1256;61237;-69
2023/07/06 01:34:13;;;;;;;3.90;2.60;;;;;;;14.07;91.21;100789.44;107436;1256;74761;-70
2023/07/06 01:36:48;;;;;;;4.80;2.40;;;;;;;14.11;91.33;100792.08;107068;1256;71883;-69
2023/07/06 01:39:18;;;;;;;5.20;2.80;;;;;;;14.12;91.21;100791.05;107195;1256;72092;-70
2023/07/06 01:41:46;;;;;;;4.60;2.80;;;;;;;14.12;91.44;100794.02;107100;1256;62010;-69
2023/07/06 01:44:15;;;;;;;4.50;2.90;;;;;;;14.13;91.45;100796.81;107233;1257;61617;-72
2023/07/06 01:46:51;;;;;;;5.80;3.20;;;;;;;14.12;91.64;100798.41;107688;1256;76225;-70
2023/07/06 01:49:18;;;;;;;4.40;2.90;;;;;;;14.14;91.70;100803.02;107501;1256;69890;-71
2023/07/06 01:52:05;;;;;;;6.20;3.40;;;;;;;14.15;91.85;100803.30;107878;1256;72393;-70
2023/07/06 01:54:42;;;;;;;5.40;3.10;;;;;;;14.17;91.89;100801.97;107711;1256;60932;-72
2023/07/06 01:57:24;;;;;;;6.20;3.20;;;;;;;14.19;91.83;100800.46;107271;1256;61342;-71
2023/07/06 01:59:55;;;;;;;5.20;3.00;;;;;;;14.21;91.64;100804.21;107557;1256;75185;-71
2023/07/06 02:02:22;;;;;;;5.70;3.20;;;;;;;14.22;91.78;100799.25;107706;1256;70763;-71
2023/07/06 02:04:52;;;;;;;4.70;3.60;;;;;;;14.25;91.77;100802.71;107599;1260;71705;-71
2023/07/06 02:07:20;;;;;;;4.80;3.20;;;;;;;14.26;91.67;100808.75;107821;1256;61180;-69
2023/07/06 02:09:51;;;;;;;5.10;3.50;;;;;;;14.27;91.86;100809.30;108214;1258;62388;-70
2023/07/06 02:12:18;;;;;;;5.20;3.20;;;;;;;14.29;91.55;100811.19;108203;1256;73550;-71
2023/07/06 02:14:48;;;;;;;6.90;3.60;;;;;;;14.30;91.55;100814.31;108142;1256;69999;-71
2023/07/06 02:17:15;;;;;;;5.30;3.10;;;;;;;14.30;91.74;100809.96;107154;1255;71217;-70
2023/07/06 02:19:42;;;;;;;4.40;3.20;;;;;;;14.29;91.65;100811.81;108248;1256;59847;-69
2023/07/06 02:22:10;;;;;;;6.40;3.10;;;;;;;14.28;91.61;100814.85;107496;1256;59512;-69
2023/07/06 02:24:38;;;;;;;4.30;3.30;;;;;;;14.27;91.87;100817.84;108374;1256;72902;-72
2023/07/06 02:27:05;;;;;;;5.70;3.20;;;;;;;14.25;91.79;100817.41;107376;1256;70266;-71
2023/07/06 02:29:33;;;;;;;5.50;3.10;;;;;;;14.22;92.07;100814.20;107590;1257;70533;-70
2023/07/06 02:32:00;;;;;;;5.40;3.50;;;;;;;14.19;92.31;100818.15;107712;1255;62003;-71
2023/07/06 02:34:27;;;;;;;7.00;3.50;;;;;;;14.16;92.56;100819.08;107317;1256;61231;-71
2023/07/06 02:36:55;;;;;;;5.70;3.50;;;;;;;14.12;93.03;100819.10;107609;1256;75881;-72
2023/07/06 02:39:26;;;;;;;6.40;3.70;;;;;;;14.07;93.32;100816.48;107348;1256;69608;-72
2023/07/06 02:41:54;;;;;;;4.70;3.90;;;;;;;14.03;93.55;100814.89;107596;1257;70842;-72
2023/07/06 02:44:24;;;;;;;8.00;4.10;;;;;;;14.00;93.81;100812.67;107750;1256;61716;-71
2023/07/06 02:46:51;;;;;;;5.00;3.90;;;;;;;13.95;94.08;100813.11;107221;1256;61321;-72
2023/07/06 02:49:17;;;;;;;5.60;3.90;;;;;;;13.90;94.25;100810.65;107665;1257;74531;-71
2023/07/06 02:51:46;;;;;;;6.00;4.20;;;;;;;13.86;94.68;100815.30;107299;1256;69684;-72
2023/07/06 02:54:15;;;;;;;5.30;4.00;;;;;;;13.81;94.81;100813.98;107581;1255;71562;-71
2023/07/06 02:56:42;;;;;;;5.60;4.00;;;;;;;13.75;95.41;100812.61;107327;1259;61263;-72
2023/07/06 02:59:10;;;;;;;7.00;4.50;;;;;;;13.69;95.71;100812.41;107229;1259;61349;-71
2023/07/06 03:01:37;;;;;;;7.20;4.50;;;;;;;13.67;95.73;100818.42;108178;1256;74776;-72
2023/07/06 03:04:10;;;;;;;8.00;4.90;;;;;;;13.63;95.72;100820.32;107754;1256;69911;-71
2023/07/06 03:06:38;;;;;;;6.30;4.50;;;;;;;13.59;96.07;100822.20;107520;1256;72412;-70
2023/07/06 03:09:07;;;;;;;5.90;4.10;;;;;;;13.56;96.06;100824.73;107290;1256;62154;-70
2023/07/06 03:11:34;;;;;;;6.10;4.20;;;;;;;13.53;96.43;100824.98;107622;1256;61890;-69
2023/07/06 03:14:02;;;;;;;5.30;4.00;;;;;;;13.50;96.45;100822.98;107539;1257;73469;-69
2023/07/06 03:16:39;;;;;;;6.90;4.10;;;;;;;13.46;96.64;100829.64;107868;1256;69679;-70
2023/07/06 03:19:08;;;;;;;6.90;4.00;;;;;;;13.41;96.86;100827.38;107676;1256;73542;-71
2023/07/06 03:21:37;;;;;;;5.90;4.20;;;;;;;13.38;96.94;100831.94;107603;1257;62455;-70
2023/07/06 03:24:06;;;;;;;7.10;4.20;;;;;;;13.35;97.08;100828.09;107205;1256;61336;-73
2023/07/06 03:26:36;;;;;;;6.10;4.30;;;;;;;13.33;96.98;100831.52;107601;1256;73484;-71
2023/07/06 03:29:04;;;;;;;5.40;4.10;;;;;;;13.31;96.89;100836.70;107138;1256;69839;-69
2023/07/06 03:31:32;;;;;;;5.10;3.80;;;;;;;13.27;96.79;100837.88;107210;1256;71515;-71
2023/07/06 03:34:00;;;;;;;6.60;4.30;;;;;;;13.23;96.97;100841.38;107316;1256;61815;-70
2023/07/06 03:36:28;;;;;;;7.20;4.00;;;;;;;13.20;96.98;100842.34;107359;1256;59352;-69
2023/07/06 03:38:57;;;;;;;5.20;4.10;;;;;;;13.17;97.18;100843.33;107548;1256;73220;-71
2023/07/06 03:41:24;;;;;;;6.20;4.00;;;;;;;13.15;96.89;100840.15;107669;1256;71232;-70
2023/07/06 03:43:56;;;;;;;5.30;4.10;;;;;;;13.15;96.98;100841.45;107407;1256;59574;-70
2023/07/06 03:46:31;;;;;;;6.30;4.40;;;;;;;13.15;96.90;100850.23;107698;1256;60444;-71
2023/07/06 03:48:58;;;;;;;5.80;4.50;;;;;;;13.15;96.80;100854.33;107320;1256;61251;-72
2023/07/06 03:51:25;;;;;;;7.50;4.70;;;;;;;13.15;96.85;100858.88;107513;1256;74022;-71
2023/07/06 03:53:52;;;;;;;8.10;4.50;;;;;;;13.15;96.99;100861.17;107529;1256;73030;-72
2023/07/06 03:56:18;;;;;;;6.10;4.30;;;;;;;13.15;97.31;100860.84;107852;1256;73171;-71
2023/07/06 03:58:45;;;;;;;7.90;5.10;;;;;;;13.14;97.30;100859.68;107451;1256;61740;-71
2023/07/06 04:01:12;;;;;;;6.70;5.30;;;;;;;13.16;97.15;100862.29;107525;1256;61217;-71
2023/07/06 04:03:38;;;;;;;7.90;5.50;;;;;;;13.19;97.06;100864.50;107686;1257;74708;-71
2023/07/06 04:06:05;;;;;;;6.50;5.70;;;;;;;13.21;97.08;100862.97;107379;1256;72391;-72
2023/07/06 04:08:32;;;;;;;8.50;6.20;;;;;;;13.23;97.10;100868.84;107750;1255;73826;-71
2023/07/06 04:11:00;;;;;;;8.70;5.80;;;;;;;13.27;97.04;100866.64;107799;1256;61230;-70
2023/07/06 04:13:29;;;;;;;8.10;6.40;;;;;;;13.30;96.91;100864.11;107501;1256;61519;-72
2023/07/06 04:15:56;;;;;;;8.40;6.60;;;;;;;13.34;96.80;100868.63;107842;1256;73575;-73
2023/07/06 04:18:24;;;;;;;8.20;6.60;;;;;;;13.40;96.96;100869.47;107622;1257;69826;-72
2023/07/06 04:20:53;;;;;;;9.20;7.20;;;;;;;13.46;96.79;100872.44;108058;1256;71423;-70
2023/07/06 04:23:19;;;;;;;7.80;6.90;;;;;;;13.53;96.45;100874.85;107564;1256;61353;-72
2023/07/06 04:25:46;;;;;;;8.80;6.90;;;;;;;13.59;96.40;100880.45;107474;1257;61206;-70
2023/07/06 04:28:14;;;;;;;10.80;7.20;;;;;;;13.66;96.20;100878.86;107335;1256;74717;-70
2023/07/06 04:30:45;;;;;;;9.20;7.30;;;;;;;13.72;95.65;100876.91;107489;1256;70960;-72
2023/07/06 04:33:15;;;;;;;11.00;8.00;;;;;;;13.79;95.78;100883.38;108015;1256;71138;-71
2023/07/06 04:35:42;;;;;;;8.90;7.80;;;;;;;13.85;95.41;100884.67;107647;1256;60628;-71
2023/07/06 04:38:10;;;;;;;10.50;7.90;;;;;;;13.93;95.34;100889.48;107771;1256;61611;-70
2023/07/06 04:40:42;;;;;;;10.10;8.20;;;;;;;13.99;95.15;100889.75;107488;1257;73466;-70
2023/07/06 04:43:10;;;;;;;11.50;8.10;;;;;;;14.05;94.86;100890.40;107269;1262;70042;-71
2023/07/06 04:45:37;;;;;;;9.70;8.10;;;;;;;14.10;94.47;100895.67;107526;1256;71521;-69
2023/07/06 04:48:05;;;;;;;10.00;7.70;;;;;;;14.14;94.40;100887.65;107350;1256;61285;-71
2023/07/06 04:50:32;;;;;;;10.70;8.70;;;;;;;14.17;94.01;100888.37;108797;1256;60425;-72
2023/07/06 04:53:01;;;;;;;9.60;8.10;;;;;;;14.20;93.96;100885.80;108833;1256;75593;-72
2023/07/06 04:55:30;;;;;;;11.10;8.40;;;;;;;14.25;93.70;100891.63;108121;1256;69719;-74
2023/07/06 04:57:59;;;;;;;11.50;8.00;;;;;;;14.31;93.73;100895.48;107782;1256;71094;-75
2023/07/06 05:00:29;;;;;;;9.10;7.80;;;;;;;14.39;93.89;100898.30;107634;1256;61209;-73
2023/07/06 05:03:06;;;;;;;10.50;7.70;;;;;;;14.47;93.61;100901.09;107939;1257;59056;-73
2023/07/06 05:05:38;;;;;;;9.80;7.90;;;;;;;14.55;93.21;100899.45;107898;1257;74809;-75
2023/07/06 05:08:07;;;;;;;10.40;7.70;;;;;;;14.59;92.82;100902.81;108146;1257;71140;-74
2023/07/06 05:10:34;;;;;;;13.10;7.80;;;;;;;14.62;92.12;100897.61;108157;1256;73658;-73
2023/07/06 05:13:05;;;;;;;9.30;6.60;;;;;;;14.65;91.85;100896.48;108143;1259;61641;-71
2023/07/06 05:15:32;;;;;;;10.30;6.60;;;;;;;14.73;91.83;100899.10;108483;1257;61265;-73
2023/07/06 05:18:01;;;;;;;8.00;6.50;;;;;;;14.80;91.40;100900.50;107779;1256;73214;-73
2023/07/06 05:20:30;;;;;;;8.60;6.40;;;;;;;14.88;91.23;100899.47;107464;1257;69957;-71
2023/07/06 05:22:58;;;;;;;6.50;5.70;;;;;;;14.97;91.05;100901.13;107884;1256;72769;-72
2023/07/06 05:25:26;;;;;;;8.50;6.20;;;;;;;15.05;90.62;100904.39;107827;1257;61205;-72
2023/07/06 05:27:53;;;;;;;7.40;5.50;;;;;;;15.11;89.39;100909.89;107484;1256;59271;-73
2023/07/06 05:30:20;;;;;;;6.50;5.20;;;;;;;15.16;88.55;100905.66;108272;1256;74714;-71
2023/07/06 05:32:49;;;;;;;7.30;4.90;;;;;;;15.20;88.18;100903.67;107721;1256;70974;-73
2023/07/06 05:35:16;;;;;;;7.80;4.90;;;;;;;15.26;87.31;100904.48;107581;1256;73076;-71
2023/07/06 05:37:44;;;;;;;8.50;5.20;;;;;;;15.31;86.88;100909.38;107745;1256;60806;-70
2023/07/06 05:40:11;;;;;;;6.60;4.40;;;;;;;15.37;86.66;100912.81;107270;1256;61258;-73
2023/07/06 05:42:38;;;;;;;7.00;4.40;;;;;;;15.43;86.00;100917.07;107713;1256;73358;-72
2023/07/06 05:45:06;;;;;;;5.90;4.20;;;;;;;15.51;86.04;100919.75;107923;1257;71250;-70
2023/07/06 05:47:33;;;;;;;5.60;4.20;;;;;;;15.57;85.33;100915.99;107397;1256;73348;-70
2023/07/06 05:50:01;;;;;;;5.10;3.70;;;;;;;15.65;85.30;100915.96;108224;1257;62009;-71
2023/07/06 05:52:28;;;;;;;7.70;3.90;;;;;;;15.73;84.83;100914.35;107440;1264;61299;-72
2023/07/06 05:54:55;;;;;;;6.20;3.50;;;;;;;15.84;84.73;100914.34;107933;1258;74760;-72
2023/07/06 05:57:22;;;;;;;6.90;3.90;;;;;;;15.94;84.05;100918.99;107318;1256;72535;-71
2023/07/06 05:59:50;;;;;;;7.00;3.10;;;;;;;16.03;83.56;100924.73;107561;1256;72625;-72
2023/07/06 06:02:20;;;;;;;5.40;3.30;;;;;;;16.09;82.50;100923.86;106700;1257;61810;-71
2023/07/06 06:04:48;;;;;;;6.30;3.40;;;;;;;16.15;82.01;100925.84;106507;1257;61299;-70
2023/07/06 06:07:15;;;;;;;6.60;3.20;;;;;;;16.22;82.19;100928.36;108111;1256;74475;-71
2023/07/06 06:09:42;;;;;;;4.50;2.50;;;;;;;16.32;81.38;100926.70;106373;1256;71441;-70
2023/07/06 06:12:17;;;;;;;6.40;2.90;;;;;;;16.37;80.01;100934.06;106223;1257;71489;-70
2023/07/06 06:14:48;;;;;;;5.60;3.00;;;;;;;16.42;79.80;100929.45;106708;1256;61244;-71
2023/07/06 06:17:17;;;;;;;5.50;2.80;;;;;;;16.49;79.79;100933.84;106490;1255;61643;-69
2023/07/06 06:19:45;;;;;;;5.60;2.90;;;;;;;16.57;79.45;100933.33;107360;1256;73345;-71
2023/07/06 06:22:15;;;;;;;5.80;2.70;;;;;;;16.68;79.40;100939.52;106665;1260;71188;-71
2023/07/06 06:24:42;;;;;;;6.30;2.70;;;;;;;16.76;79.25;100947.31;107486;1256;72744;-73
2023/07/06 06:27:11;;;;;;;4.80;2.60;;;;;;;16.87;78.74;100950.91;106755;1256;62091;-71
2023/07/06 06:29:39;;;;;;;4.70;2.20;;;;;;;16.96;77.48;100954.34;106510;1256;61244;-71
2023/07/06 06:32:07;;;;;;;5.40;2.20;;;;;;;17.05;76.71;100961.20;106365;1259;75869;-70
2023/07/06 06:34:35;;;;;;;4.30;2.30;;;;;;;17.13;75.18;100968.02;106458;1257;71201;-73
2023/07/06 06:37:04;;;;;;;4.90;2.40;;;;;;;17.22;75.42;100968.82;107052;1255;72826;-72
2023/07/06 06:39:34;;;;;;;7.50;2.90;;;;;;;17.27;75.95;100970.98;106407;1257;62157;-74
2023/07/06 06:42:02;;;;;;;5.80;2.60;;;;;;;17.29;75.38;100970.06;107623;1256;61273;-70
2023/07/06 06:44:30;;;;;;;5.80;2.80;;;;;;;17.33;74.88;100978.55;106836;1257;74444;-73
2023/07/06 06:47:00;;;;;;;5.00;2.90;;;;;;;17.30;75.07;100976.54;106312;1256;70695;-72
2023/07/06 06:49:33;;;;;;;4.70;2.90;;;;;;;17.35;75.39;100983.27;106184;1257;73185;-71
2023/07/06 06:52:01;;;;;;;5.30;2.60;;;;;;;17.41;75.50;100981.35;106260;1256;62328;-73
2023/07/06 06:54:30;;;;;;;5.50;2.80;;;;;;;17.51;74.76;100981.73;106770;1255;61372;-73
2023/07/06 06:56:57;;;;;;;4.50;2.60;;;;;;;17.58;73.57;100983.67;106369;1256;75946;-71
2023/07/06 06:59:24;;;;;;;4.90;2.50;;;;;;;17.58;72.68;100989.48;106608;1257;72552;-71
2023/07/06 07:01:51;;;;;;;5.80;2.70;;;;;;;17.64;72.36;100980.02;106249;1259;70187;-72
2023/07/06 07:04:20;;;;;;;4.40;2.60;;;;;;;17.70;72.00;100982.77;106239;1259;62926;-72
2023/07/06 07:06:46;;;;;;;7.90;2.80;;;;;;;17.80;72.11;100981.61;106422;1256;61251;-73
2023/07/06 07:09:14;;;;;;;4.00;2.50;;;;;;;17.93;72.37;100984.33;106145;1259;73590;-70
2023/07/06 07:11:40;;;;;;;4.70;2.20;;;;;;;18.02;70.33;100982.27;106115;1263;71490;-72
2023/07/06 07:14:08;;;;;;;6.50;3.00;;;;;;;18.06;70.28;100983.05;106690;1257;73007;-72
2023/07/06 07:16:37;;;;;;;4.30;2.40;;;;;;;18.12;70.45;100987.17;106484;1256;62001;-74
2023/07/06 07:19:04;;;;;;;6.40;2.50;;;;;;;18.20;69.61;100993.61;106718;1258;60089;-72
2023/07/06 07:21:32;;;;;;;5.00;2.40;;;;;;;18.24;68.39;100996.73;106058;1257;73240;-72
2023/07/06 07:23:58;;;;;;;4.50;2.10;;;;;;;18.30;67.89;100994.44;106370;1257;70294;-71
2023/07/06 07:26:25;;;;;;;3.10;1.80;;;;;;;18.45;67.61;100998.14;106249;1259;71486;-73
2023/07/06 07:28:53;;;;;;;4.60;2.00;;;;;;;18.59;66.32;100994.48;106132;1257;61209;-72
2023/07/06 07:31:21;;;;;;;4.10;1.90;;;;;;;18.75;66.17;100996.48;107706;1257;61727;-71
2023/07/06 07:33:49;;;;;;;4.50;1.90;;;;;;;18.91;66.04;100996.05;106267;1263;74788;-72
2023/07/06 07:36:18;;;;;;;4.50;2.00;;;;;;;19.01;63.58;101002.61;106737;1256;70951;-73
2023/07/06 07:38:47;;;;;;;5.30;2.00;;;;;;;19.11;63.72;100993.84;106263;1257;71806;-73
2023/07/06 07:41:19;;;;;;;3.70;1.70;;;;;;;19.26;63.90;100995.13;106235;1256;62967;-71
2023/07/06 07:43:48;;;;;;;3.40;1.50;;;;;;;19.34;61.19;100996.52;106305;1261;61140;-71
2023/07/06 07:46:18;;;;;;;4.00;1.70;;;;;;;19.30;60.61;100992.39;106342;1259;73278;-72
2023/07/06 07:48:47;;;;;;;5.80;1.60;;;;;;;19.30;60.41;100990.56;106374;1256;70023;-73
2023/07/06 07:51:17;;;;;;;3.60;1.60;;;;;;;19.31;59.68;100985.47;106754;1256;72465;-74
2023/07/06 07:53:44;;;;;;;3.50;1.40;;;;;;;19.33;59.62;100986.23;106095;1257;61905;-72
2023/07/06 07:56:15;;;;;;;3.70;1.90;;;;;;;19.31;59.13;100986.67;106766;1257;61146;-71
2023/07/06 07:58:47;;;;;;;3.40;1.60;;;;;;;19.30;58.02;100990.36;106502;1256;74447;-70
2023/07/06 08:01:18;;;;;;;2.60;1.30;;;;;;;19.23;57.17;100988.51;106088;1257;70014;-71
2023/07/06 08:03:45;;;;;;;4.10;1.60;;;;;;;19.14;56.96;100987.73;106168;1257;71980;-71
2023/07/06 08:06:16;;;;;;;7.90;1.80;;;;;;;19.07;57.54;100984.10;106685;1259;61647;-72
2023/07/06 08:08:44;;;;;;;2.70;1.30;;;;;;;19.10;57.82;100995.42;106703;1256;61637;-70
2023/07/06 08:11:17;;;;;;;3.20;1.40;;;;;;;19.14;58.27;100991.09;106310;1257;73800;-74
2023/07/06 08:13:50;;;;;;;3.70;1.40;;;;;;;19.22;58.66;100997.33;106404;1256;71256;-74
2023/07/06 08:16:19;;;;;;;4.50;1.40;;;;;;;19.23;58.55;100999.72;106487;1261;73114;-70
2023/07/06 08:18:48;;;;;;;2.70;1.30;;;;;;;19.27;58.34;100998.76;106156;1256;61470;-72
2023/07/06 08:21:16;;;;;;;4.80;1.40;;;;;;;19.42;58.11;101001.65;106504;1256;61268;-70
2023/07/06 08:24:03;;;;;;;3.30;1.70;;;;;;;19.54;57.43;101011.90;106558;1257;77032;-71
2023/07/06 08:26:31;;;;;;;3.70;1.50;;;;;;;19.60;58.44;101012.63;106452;1257;71335;-72
2023/07/06 08:28:58;;;;;;;2.40;1.20;;;;;;;19.73;59.00;101008.55;106497;1259;72399;-71
2023/07/06 08:31:26;;;;;;;3.60;1.40;;;;;;;19.77;56.61;101016.20;106756;1257;62116;-73
2023/07/06 08:33:54;;;;;;;3.50;1.50;;;;;;;19.73;57.63;101018.73;106888;1256;61233;-73
2023/07/06 08:36:21;;;;;;;4.90;1.70;;;;;;;19.85;58.61;101016.85;106216;1256;74629;-71
2023/07/06 08:38:48;;;;;;;4.10;1.70;;;;;;;19.93;57.72;101014.66;106375;1257;70140;-72
2023/07/06 08:41:30;;;;;;;4.80;1.60;;;;;;;20.04;57.74;101015.45;106276;1257;72489;-71
2023/07/06 08:43:59;;;;;;;3.20;1.50;;;;;;;20.16;56.72;101021.85;106393;1259;61298;-71
2023/07/06 08:46:36;;;;;;;4.00;1.40;;;;;;;20.09;55.43;101016.67;106621;1263;61411;-72
2023/07/06 08:49:12;;;;;;;3.20;1.50;;;;;;;20.09;56.37;101019.96;106954;1257;75041;-74
2023/07/06 08:51:39;;;;;;;4.90;1.80;;;;;;;20.16;56.44;101019.02;106579;1256;71711;-71
2023/07/06 08:54:24;;;;;;;3.60;1.40;;;;;;;20.25;56.30;101015.71;106206;1257;70413;-72
2023/07/06 08:56:52;;;;;;;3.10;1.60;;;;;;;20.36;56.73;101019.42;106543;1257;61890;-74
2023/07/06 08:59:43;;;;;;;3.10;1.40;;;;;;;20.49;56.24;101018.73;107077;1256;61283;-73
2023/07/06 09:02:36;;;;;;;2.90;1.50;;;;;;;20.58;56.69;101022.77;107229;1256;73417;-71
2023/07/06 09:05:31;;;;;;;3.40;1.40;;;;;;;20.80;55.20;101018.80;106736;1259;71219;-71
2023/07/06 09:07:58;;;;;;;4.30;1.50;;;;;;;20.93;54.01;101018.80;107360;1262;72435;-72
2023/07/06 09:10:28;;;;;;;4.40;1.40;;;;;;;21.15;54.24;101022.13;106250;1256;61189;-72
2023/07/06 09:13:13;;;;;;;5.10;1.30;;;;;;;21.25;53.46;101025.52;106355;1261;61769;-71
2023/07/06 09:15:40;;;;;;;3.90;1.40;;;;;;;21.22;52.82;101023.45;106226;1262;75372;-72
2023/07/06 09:18:13;;;;;;;3.00;1.30;;;;;;;21.13;51.89;101020.63;106461;1258;70377;-72
2023/07/06 09:20:40;;;;;;;3.80;1.30;;;;;;;21.16;51.73;101021.73;106235;1260;71966;-72
2023/07/06 09:23:13;;;;;;;5.10;1.70;;;;;;;21.31;50.87;101022.10;106661;1259;61291;-71
2023/07/06 09:25:42;;;;;;;2.80;1.30;;;;;;;21.44;50.37;101024.91;106279;1257;62723;-72
2023/07/06 09:28:23;;;;;;;2.30;1.20;;;;;;;21.55;50.24;101022.45;107176;1258;74533;-71
2023/07/06 09:31:06;;;;;;;4.60;1.20;;;;;;;21.52;50.08;101014.55;106198;1257;70179;-72
2023/07/06 09:33:33;;;;;;;3.20;1.40;;;;;;;21.55;50.48;101026.22;106330;1257;72911;-71
2023/07/06 09:36:00;;;;;;;4.60;1.80;;;;;;;21.67;49.78;101025.01;106270;1260;61375;-72
2023/07/06 09:38:27;;;;;;;2.60;1.10;;;;;;;21.79;49.41;101026.04;106536;1256;61135;-72
2023/07/06 09:40:54;;;;;;;2.80;1.40;;;;;;;21.90;49.06;101025.25;107209;1259;73111;-73
2023/07/06 09:43:26;;;;;;;2.50;1.00;;;;;;;21.98;48.75;101024.48;106393;1258;71277;-72
2023/07/06 09:45:55;;;;;;;3.90;1.50;;;;;;;22.07;47.40;101028.81;106517;1258;72723;-70
2023/07/06 09:48:32;;;;;;;3.60;1.10;;;;;;;22.14;46.71;101034.02;106848;1259;61254;-71
2023/07/06 09:51:24;;;;;;;2.30;1.10;;;;;;;22.10;46.70;101033.07;106475;1260;61275;-72
2023/07/06 09:54:00;;;;;;;3.30;1.20;;;;;;;22.15;47.22;101033.64;106477;1257;74389;-71
2023/07/06 09:56:29;;;;;;;2.20;0.90;;;;;;;22.19;45.39;101032.04;106533;1258;69984;-72
2023/07/06 09:58:58;;;;;;;3.30;1.20;;;;;;;22.41;46.22;101035.95;107251;1259;71514;-72
2023/07/06 10:02:08;;;;;;;4.00;1.40;;;;;;;22.62;46.57;101032.12;106382;1262;61228;-72
2023/07/06 10:04:43;;;;;;;3.30;1.30;;;;;;;22.87;45.86;101025.98;106870;1255;61148;-69
2023/07/06 10:07:25;;;;;;;5.50;1.20;;;;;;;22.78;44.47;101031.55;106379;1260;73580;-72
2023/07/06 10:10:08;;;;;;;2.40;1.10;;;;;;;22.66;44.95;101032.23;106533;1259;69680;-72
2023/07/06 10:13:00;;;;;;;4.20;1.10;;;;;;;22.58;44.93;101031.36;106956;1262;72798;-70
2023/07/06 10:15:43;;;;;;;3.10;1.20;;;;;;;22.66;45.28;101034.71;106444;1257;61529;-72
2023/07/06 10:18:23;;;;;;;4.10;1.40;;;;;;;22.69;45.40;101024.86;106778;1257;61189;-71
2023/07/06 10:21:01;;;;;;;3.20;1.20;;;;;;;22.64;45.34;101025.80;106389;1256;73228;-71
2023/07/06 10:23:40;;;;;;;2.20;0.90;;;;;;;22.60;45.14;101025.11;107509;1261;71281;-73
2023/07/06 10:26:26;;;;;;;2.40;0.90;;;;;;;22.61;44.49;101029.28;106434;1256;72055;-71
2023/07/06 10:29:16;;;;;;;2.10;0.90;;;;;;;22.49;44.73;101027.81;106050;1257;61802;-72
2023/07/06 10:31:52;;;;;;;2.10;0.70;;;;;;;22.32;44.87;101033.42;108845;1257;58988;-73
2023/07/06 10:34:44;;;;;;;3.20;1.10;;;;;;;22.28;44.07;101025.48;106613;1256;74695;-72
2023/07/06 10:37:16;;;;;;;2.30;0.90;;;;;;;22.45;44.96;101025.95;107143;1257;70020;-73
2023/07/06 10:39:45;;;;;;;1.80;0.60;;;;;;;22.54;43.95;101027.88;107318;1260;71560;-72
2023/07/06 10:42:26;;;;;;;1.80;0.80;;;;;;;22.55;41.69;101031.30;106231;1257;61275;-71
2023/07/06 10:44:58;;;;;;;3.20;0.90;;;;;;;22.48;42.06;101025.24;106505;1261;61594;-73
2023/07/06 10:47:28;;;;;;;2.30;0.80;;;;;;;22.52;42.56;101028.45;106603;1257;73245;-72
2023/07/06 10:50:08;;;;;;;2.30;0.90;;;;;;;22.49;42.21;101034.34;106298;1258;70576;-71
2023/07/06 10:52:38;;;;;;;2.60;1.10;;;;;;;22.40;41.90;101034.64;106235;1257;72715;-75
2023/07/06 10:55:23;;;;;;;2.40;0.90;;;;;;;22.36;41.30;101028.63;107079;1261;61267;-71
2023/07/06 10:57:57;;;;;;;2.80;0.80;;;;;;;22.40;41.45;101036.42;106692;1257;62229;-72
2023/07/06 11:00:33;;;;;;;2.20;1.00;;;;;;;22.49;41.85;101035.55;106208;1256;73717;-71
2023/07/06 11:03:02;;;;;;;2.60;0.90;;;;;;;22.61;41.74;101027.33;106622;1263;70616;-69
2023/07/06 11:05:33;;;;;;;4.20;0.90;;;;;;;22.76;42.21;101028.64;106508;1257;73144;-70
2023/07/06 11:08:10;;;;;;;1.80;0.70;;;;;;;22.89;40.91;101026.98;107562;1263;60169;-71
2023/07/06 11:11:04;;;;;;;2.60;0.80;;;;;;;22.94;41.38;101030.35;106784;1256;61276;-70
2023/07/06 11:13:32;;;;;;;1.70;0.80;;;;;;;22.77;41.61;101034.40;108013;1257;75968;-73
2023/07/06 11:16:04;;;;;;;3.00;1.00;;;;;;;22.72;42.13;101033.89;106929;1257;69877;-68
2023/07/06 11:18:46;;;;;;;2.80;0.90;;;;;;;22.73;42.12;101039.37;106597;1257;71335;-70
2023/07/06 11:21:36;;;;;;;3.10;0.90;;;;;;;22.83;41.55;101034.80;106651;1256;60743;-71
2023/07/06 11:24:06;;;;;;;2.40;0.80;;;;;;;22.92;41.33;101035.14;106432;1256;61259;-70
2023/07/06 11:26:36;;;;;;;2.30;0.90;;;;;;;23.08;41.14;101032.59;106849;1259;73804;-72
2023/07/06 11:29:07;;;;;;;3.20;1.00;;;;;;;23.29;40.42;101036.76;106981;1259;71265;-73
2023/07/06 11:31:43;;;;;;;3.00;0.80;;;;;;;23.54;41.24;101033.31;106911;1257;72019;-71
2023/07/06 11:34:34;;;;;;;2.60;0.90;;;;;;;23.74;40.97;101034.58;107907;1257;61414;-71
2023/07/06 11:37:25;;;;;;;3.10;0.90;;;;;;;23.83;41.31;101033.82;106568;1257;61169;-71